createdAt,value
2023-10-10T00:01:07.087Z,100709.50
2023-10-10T00:03:37.929Z,100711.25
2023-10-10T00:06:09.569Z,100728.03
2023-10-10T00:08:41.792Z,100728.91
2023-10-10T00:11:16.075Z,100735.06
2023-10-10T00:13:44.601Z,100728.00
2023-10-10T00:16:13.750Z,100729.78
2023-10-10T00:18:47.036Z,100714.03
2023-10-10T00:21:24.155Z,100735.13
2023-10-10T00:23:52.594Z,100718.44
2023-10-10T00:26:23.309Z,100734.22
2023-10-10T00:28:58.814Z,100726.28
2023-10-10T00:31:28.488Z,100747.41
2023-10-10T00:33:56.538Z,100739.47
2023-10-10T00:36:32.494Z,100741.31
2023-10-10T00:39:19.394Z,100748.34
2023-10-10T00:41:52.455Z,100750.16
2023-10-10T00:44:20.733Z,100751.84
2023-10-10T00:46:56.711Z,100758.00
2023-10-10T00:49:26.803Z,100758.03
2023-10-10T00:51:57.229Z,100748.41
2023-10-10T00:54:27.201Z,100758.94
2023-10-10T00:56:56.191Z,100745.69
2023-10-10T00:59:30.647Z,100744.81
2023-10-10T01:01:57.982Z,100743.06
2023-10-10T01:04:39.151Z,100747.50
2023-10-10T01:07:11.454Z,100738.66
2023-10-10T01:09:41.613Z,100737.75
2023-10-10T01:12:11.214Z,100736.03
2023-10-10T01:14:39.845Z,100735.09
2023-10-10T01:17:13.455Z,100714.94
2023-10-10T01:19:40.537Z,100722.03
2023-10-10T01:22:23.594Z,100743.16
2023-10-10T01:24:54.685Z,100744.91
2023-10-10T01:27:23.546Z,100723.72
2023-10-10T01:30:11.410Z,100725.44
2023-10-10T01:32:40.856Z,100699.91
2023-10-10T01:35:17.607Z,100693.00
2023-10-10T01:37:55.835Z,100687.69
2023-10-10T01:40:25.426Z,100732.50
2023-10-10T01:42:55.387Z,100738.66
2023-10-10T01:45:24.978Z,100717.56
2023-10-10T01:48:09.404Z,100731.59
2023-10-10T01:50:36.583Z,100730.66
2023-10-10T01:53:11.909Z,100707.72
2023-10-10T01:55:38.903Z,100739.38
2023-10-10T01:58:12.696Z,100744.69
2023-10-10T02:00:40.793Z,100738.56
2023-10-10T02:03:08.103Z,100738.50
2023-10-10T02:05:38.324Z,100740.25
2023-10-10T02:08:26.879Z,100742.94
2023-10-10T02:10:56.035Z,100745.53
2023-10-10T02:13:23.664Z,100749.06
2023-10-10T02:15:50.876Z,100751.69
2023-10-10T02:18:38.015Z,100750.78
2023-10-10T02:21:17.630Z,100752.59
2023-10-10T02:23:46.329Z,100748.16
2023-10-10T02:26:25.410Z,100754.38
2023-10-10T02:29:12.807Z,100746.41
2023-10-10T02:31:43.470Z,100745.53
2023-10-10T02:34:11.886Z,100745.53
2023-10-10T02:36:42.357Z,100748.19
2023-10-10T02:39:18.107Z,100742.94
2023-10-10T02:41:53.118Z,100747.41
2023-10-10T02:44:35.526Z,100764.09
2023-10-10T02:47:03.596Z,100736.00
2023-10-10T02:49:30.787Z,100776.53
2023-10-10T02:51:58.478Z,100772.13
2023-10-10T02:54:32.935Z,100744.81
2023-10-10T02:57:25.449Z,100769.41
2023-10-10T03:00:00.416Z,100765.00
2023-10-10T03:02:42.205Z,100736.88
2023-10-10T03:05:16.483Z,100778.19
2023-10-10T03:07:53.139Z,100784.34
2023-10-10T03:10:24.079Z,100749.19
2023-10-10T03:12:53.764Z,100776.44
2023-10-10T03:15:21.203Z,100756.22
2023-10-10T03:17:52.206Z,100779.91
2023-10-10T03:20:25.952Z,100754.41
2023-10-10T03:23:08.741Z,100773.75
2023-10-10T03:25:53.163Z,100776.34
2023-10-10T03:28:21.214Z,100773.75
2023-10-10T03:31:17.388Z,100792.22
2023-10-10T03:33:44.793Z,100793.06
2023-10-10T03:36:20.152Z,100778.97
2023-10-10T03:38:49.349Z,100771.91
2023-10-10T03:41:36.074Z,100776.34
2023-10-10T03:44:21.841Z,100775.50
2023-10-10T03:47:01.447Z,100784.28
2023-10-10T03:50:02.291Z,100797.53
2023-10-10T03:52:48.199Z,100792.25
2023-10-10T03:55:33.602Z,100791.38
2023-10-10T03:58:19.210Z,100782.53
2023-10-10T04:01:04.550Z,100787.81
2023-10-10T04:03:50.650Z,100776.37
2023-10-10T04:06:36.489Z,100796.66
2023-10-10T04:09:22.055Z,100796.66
2023-10-10T04:12:07.756Z,100792.25
2023-10-10T04:14:53.366Z,100801.97
2023-10-10T04:17:38.874Z,100785.25
2023-10-10T04:20:25.184Z,100775.56
2023-10-10T04:23:11.181Z,100800.19
2023-10-10T04:25:57.200Z,100809.03
2023-10-10T04:28:43.142Z,100807.22
2023-10-10T04:31:28.668Z,100799.31
2023-10-10T04:34:14.638Z,100801.94
2023-10-10T04:37:00.703Z,100808.97
2023-10-10T04:39:46.310Z,100806.34
2023-10-10T04:42:32.210Z,100788.78
2023-10-10T04:45:17.869Z,100810.75
2023-10-10T04:48:03.844Z,100809.84
2023-10-10T04:50:49.806Z,100818.66
2023-10-10T04:53:35.612Z,100814.31
2023-10-10T04:56:21.404Z,100808.19
2023-10-10T04:59:07.104Z,100795.00
2023-10-10T05:01:52.995Z,100810.78
2023-10-10T05:04:38.764Z,100811.66
2023-10-10T05:07:24.542Z,100815.16
2023-10-10T05:10:10.356Z,100829.31
2023-10-10T05:12:55.586Z,100836.34
2023-10-10T05:15:41.348Z,100833.66
2023-10-10T05:18:27.290Z,100836.31
2023-10-10T05:21:14.471Z,100838.03
2023-10-10T05:23:49.124Z,100835.47
2023-10-10T05:26:21.066Z,100856.56
2023-10-10T05:28:49.707Z,100857.41
2023-10-10T05:31:22.438Z,100867.13
2023-10-10T05:33:50.074Z,100843.41
2023-10-10T05:36:19.822Z,100857.44
2023-10-10T05:38:49.534Z,100854.78
2023-10-10T05:41:20.357Z,100834.63
2023-10-10T05:43:51.333Z,100860.09
2023-10-10T05:46:18.759Z,100863.66
2023-10-10T05:48:47.824Z,100867.16
2023-10-10T05:51:15.046Z,100866.19
2023-10-10T05:53:42.415Z,100867.09
2023-10-10T05:56:17.204Z,100868.78
2023-10-10T05:58:45.884Z,100868.66
2023-10-10T06:01:15.187Z,100881.84
2023-10-10T06:03:43.841Z,100868.66
2023-10-10T06:06:13.819Z,100885.38
2023-10-10T06:08:44.520Z,100902.94
2023-10-10T06:11:15.905Z,100910.03
2023-10-10T06:13:45.705Z,100899.56
2023-10-10T06:16:16.320Z,100909.28
2023-10-10T06:18:46.598Z,100936.59
2023-10-10T06:21:16.156Z,100928.63
2023-10-10T06:23:45.968Z,100925.97
2023-10-10T06:26:14.318Z,100916.28
2023-10-10T06:28:49.184Z,100912.75
2023-10-10T06:31:33.423Z,100911.06
2023-10-10T06:34:00.950Z,100915.47
2023-10-10T06:36:34.017Z,100914.56
2023-10-10T06:39:21.432Z,100916.31
2023-10-10T06:41:52.053Z,100925.03
2023-10-10T06:44:41.278Z,100927.53
2023-10-10T06:47:13.282Z,100938.94
2023-10-10T06:50:01.111Z,100937.88
2023-10-10T06:52:30.573Z,100921.28
2023-10-10T06:54:57.960Z,100934.34
2023-10-10T06:57:45.574Z,100934.53
2023-10-10T07:00:17.999Z,100931.81
2023-10-10T07:02:49.845Z,100945.22
2023-10-10T07:05:20.280Z,100943.38
2023-10-10T07:07:53.598Z,100923.09
2023-10-10T07:10:34.972Z,100924.78
2023-10-10T07:13:03.008Z,100935.31
2023-10-10T07:15:37.875Z,100934.47
2023-10-10T07:18:23.553Z,100942.41
2023-10-10T07:21:30.094Z,100940.53
2023-10-10T07:24:16.326Z,100937.88
2023-10-10T07:26:44.885Z,100945.75
2023-10-10T07:29:48.649Z,100953.69
2023-10-10T07:32:18.822Z,100946.78
2023-10-10T07:34:52.963Z,100949.53
2023-10-10T07:37:20.409Z,100944.34
2023-10-10T07:40:10.543Z,100946.09
2023-10-10T07:42:38.793Z,100947.00
2023-10-10T07:45:15.517Z,100939.03
2023-10-10T07:48:15.600Z,100944.25
2023-10-10T07:50:49.101Z,100941.56
2023-10-10T07:53:18.521Z,100931.09
2023-10-10T07:56:00.341Z,100949.53
2023-10-10T07:58:53.496Z,100956.44
2023-10-10T08:01:22.101Z,100950.25
2023-10-10T08:03:49.716Z,100923.00
2023-10-10T08:06:20.305Z,100949.34
2023-10-10T08:08:50.482Z,100943.09
2023-10-10T08:11:27.206Z,100952.75
2023-10-10T08:13:54.161Z,100955.31
2023-10-10T08:16:22.790Z,100948.97
2023-10-10T08:18:49.993Z,100960.50
2023-10-10T08:21:17.906Z,100961.28
2023-10-10T08:23:47.544Z,100972.91
2023-10-10T08:26:26.136Z,100967.53
2023-10-10T08:28:54.346Z,100963.16
2023-10-10T08:31:24.078Z,100966.72
2023-10-10T08:33:51.565Z,100971.12
2023-10-10T08:36:24.920Z,100975.50
2023-10-10T08:38:59.829Z,100985.25
2023-10-10T08:41:30.091Z,100974.66
2023-10-10T08:44:02.772Z,100984.38
2023-10-10T08:46:32.117Z,100976.44
2023-10-10T08:49:00.693Z,100994.09
2023-10-10T08:51:35.346Z,100995.88
2023-10-10T08:54:11.264Z,100987.06
2023-10-10T08:56:44.275Z,100999.34
2023-10-10T08:59:12.436Z,100997.56
2023-10-10T09:01:41.025Z,100993.97
2023-10-10T09:04:13.997Z,100998.34
2023-10-10T09:06:59.521Z,101000.94
2023-10-10T09:09:39.252Z,100995.63
2023-10-10T09:12:15.683Z,100974.41
2023-10-10T09:14:45.211Z,100981.41
2023-10-10T09:17:37.501Z,101003.41
2023-10-10T09:20:19.129Z,101008.78
2023-10-10T09:22:53.102Z,101013.28
2023-10-10T09:25:21.406Z,101011.47
2023-10-10T09:28:00.370Z,101014.97
2023-10-10T09:30:35.924Z,101012.41
2023-10-10T09:33:36.884Z,101006.16
2023-10-10T09:36:11.113Z,101002.59
2023-10-10T09:38:46.817Z,101003.59
2023-10-10T09:41:27.731Z,101017.81
2023-10-10T09:44:24.475Z,101018.75
2023-10-10T09:47:37.246Z,101016.91
2023-10-10T09:50:22.030Z,101012.53
2023-10-10T09:52:59.631Z,101030.31
2023-10-10T09:55:32.739Z,101032.88
2023-10-10T09:58:07.079Z,101028.38
2023-10-10T10:00:38.564Z,101015.12
2023-10-10T10:03:29.257Z,101014.13
2023-10-10T10:06:03.873Z,100984.97
2023-10-10T10:08:43.755Z,101020.22
2023-10-10T10:11:27.454Z,101020.28
2023-10-10T10:14:22.118Z,101011.44
2023-10-10T10:17:01.098Z,101019.47
2023-10-10T10:19:29.875Z,101015.81
2023-10-10T10:22:10.087Z,101009.44
2023-10-10T10:24:46.572Z,101009.53
2023-10-10T10:27:35.720Z,101000.53
2023-10-10T10:30:20.537Z,101005.25
2023-10-10T10:32:49.654Z,101006.50
2023-10-10T10:35:25.459Z,100992.19
2023-10-10T10:37:57.879Z,101008.53
2023-10-10T10:40:42.458Z,101013.50
2023-10-10T10:43:16.597Z,101018.53
2023-10-10T10:45:52.779Z,101027.00
2023-10-10T10:48:37.128Z,101022.59
2023-10-10T10:51:24.073Z,101006.25
2023-10-10T10:54:00.773Z,101007.41
2023-10-10T10:56:31.311Z,101010.22
2023-10-10T10:59:20.896Z,100980.13
2023-10-10T11:01:58.838Z,101003.94
2023-10-10T11:04:33.212Z,101007.59
2023-10-10T11:07:16.857Z,100994.22
2023-10-10T11:10:07.600Z,100982.03
2023-10-10T11:12:38.162Z,100999.53
2023-10-10T11:15:12.679Z,100999.19
2023-10-10T11:17:40.938Z,100994.78
2023-10-10T11:20:31.210Z,100991.41
2023-10-10T11:23:12.668Z,100997.66
2023-10-10T11:25:46.789Z,100987.97
2023-10-10T11:28:23.154Z,100994.19
2023-10-10T11:30:51.911Z,100984.81
2023-10-10T11:33:32.816Z,100993.34
2023-10-10T11:36:23.606Z,100988.91
2023-10-10T11:38:57.153Z,100980.84
2023-10-10T11:41:30.790Z,100954.34
2023-10-10T11:44:04.383Z,100958.63
2023-10-10T11:46:32.229Z,100968.19
2023-10-10T11:49:01.281Z,100991.88
2023-10-10T11:51:35.656Z,100988.44
2023-10-10T11:54:03.406Z,100964.72
2023-10-10T11:56:35.958Z,100977.00
2023-10-10T11:59:15.465Z,100979.66
2023-10-10T12:01:52.897Z,100966.41
2023-10-10T12:04:39.390Z,100945.19
2023-10-10T12:07:07.612Z,100959.31
2023-10-10T12:09:35.327Z,100958.16
2023-10-10T12:12:05.261Z,100960.88
2023-10-10T12:14:33.491Z,100933.25
2023-10-10T12:17:06.477Z,100932.81
2023-10-10T12:19:38.113Z,100948.03
2023-10-10T12:22:10.131Z,100945.75
2023-10-10T12:24:43.299Z,100950.28
2023-10-10T12:27:14.875Z,100949.56
2023-10-10T12:29:42.461Z,100941.13
2023-10-10T12:32:16.960Z,100951.06
2023-10-10T12:34:47.332Z,100946.47
2023-10-10T12:37:16.865Z,100949.03
2023-10-10T12:39:45.099Z,100947.81
2023-10-10T12:42:12.758Z,100946.75
2023-10-10T12:44:39.758Z,100948.56
2023-10-10T12:47:09.599Z,100956.84
2023-10-10T12:49:45.906Z,100957.03
2023-10-10T12:52:13.749Z,100963.41
2023-10-10T12:54:43.296Z,100941.47
2023-10-10T12:57:15.402Z,100953.81
2023-10-10T12:59:47.932Z,100943.03
2023-10-10T13:02:17.096Z,100955.91
2023-10-10T13:04:48.404Z,100950.78
2023-10-10T13:07:17.621Z,100947.66
2023-10-10T13:09:47.818Z,100942.94
2023-10-10T13:12:19.861Z,100944.03
2023-10-10T13:14:52.110Z,100949.00
2023-10-10T13:17:31.794Z,100951.66
2023-10-10T13:20:00.424Z,100938.06
2023-10-10T13:22:30.603Z,100943.50
2023-10-10T13:24:58.004Z,100946.25
2023-10-10T13:27:26.704Z,100937.06
2023-10-10T13:29:54.198Z,100938.50
2023-10-10T13:32:21.728Z,100932.59
2023-10-10T13:34:49.327Z,100934.97
2023-10-10T13:37:16.433Z,100933.38
2023-10-10T13:39:49.652Z,100937.00
2023-10-10T13:42:18.948Z,100937.88
2023-10-10T13:44:46.655Z,100933.94
2023-10-10T13:47:14.633Z,100940.16
2023-10-10T13:50:01.932Z,100933.62
2023-10-10T13:52:28.858Z,100920.16
2023-10-10T13:54:55.919Z,100920.72
2023-10-10T13:57:22.793Z,100932.59
2023-10-10T13:59:50.713Z,100929.53
2023-10-10T14:02:18.363Z,100925.59
2023-10-10T14:04:50.046Z,100931.94
2023-10-10T14:07:17.527Z,100926.06
2023-10-10T14:10:02.278Z,100922.34
2023-10-10T14:12:33.890Z,100931.69
2023-10-10T14:15:02.937Z,100920.56
2023-10-10T14:17:31.395Z,100935.06
2023-10-10T14:20:00.634Z,100934.72
2023-10-10T14:22:32.206Z,100929.16
2023-10-10T14:25:05.073Z,100935.81
2023-10-10T14:27:32.893Z,100937.59
2023-10-10T14:30:04.802Z,100934.97
2023-10-10T14:32:38.741Z,100941.22
2023-10-10T14:35:07.582Z,100931.78
2023-10-10T14:37:49.858Z,100941.28
2023-10-10T14:40:24.237Z,100931.53
2023-10-10T14:42:53.531Z,100931.91
2023-10-10T14:45:25.799Z,100937.09
2023-10-10T14:47:53.206Z,100940.41
2023-10-10T14:50:24.635Z,100931.31
2023-10-10T14:52:52.692Z,100932.97
2023-10-10T14:55:26.907Z,100925.97
2023-10-10T14:57:56.486Z,100933.84
2023-10-10T15:00:28.547Z,100917.88
2023-10-10T15:02:56.735Z,100925.81
2023-10-10T15:05:27.852Z,100932.47
2023-10-10T15:07:55.714Z,100925.59
2023-10-10T15:10:27.725Z,100936.44
2023-10-10T15:12:56.037Z,100942.88
2023-10-10T15:15:24.576Z,100939.50
2023-10-10T15:17:52.727Z,100920.53
2023-10-10T15:20:20.181Z,100933.91
2023-10-10T15:22:47.779Z,100935.13
2023-10-10T15:25:16.568Z,100931.84
2023-10-10T15:27:43.990Z,100917.25
2023-10-10T15:30:11.923Z,100943.03
2023-10-10T15:32:48.384Z,100933.53
2023-10-10T15:35:18.463Z,100938.37
2023-10-10T15:37:46.006Z,100941.31
2023-10-10T15:40:22.384Z,100923.09
2023-10-10T15:42:51.935Z,100938.25
2023-10-10T15:45:22.311Z,100934.91
2023-10-10T15:47:50.720Z,100946.59
2023-10-10T15:50:18.078Z,100956.53
2023-10-10T15:52:52.453Z,100947.03
2023-10-10T15:55:34.324Z,100955.09
2023-10-10T15:58:01.562Z,100968.53
2023-10-10T16:00:35.015Z,100966.03
2023-10-10T16:03:08.559Z,100959.09
2023-10-10T16:05:42.904Z,100967.28
2023-10-10T16:08:10.414Z,100956.00
2023-10-10T16:10:41.706Z,100974.53
2023-10-10T16:13:09.939Z,100960.53
2023-10-10T16:15:38.252Z,100976.44
2023-10-10T16:18:06.822Z,100974.81
2023-10-10T16:20:37.103Z,100986.47
2023-10-10T16:23:09.645Z,100973.28
2023-10-10T16:25:38.656Z,100976.03
2023-10-10T16:28:07.210Z,100976.06
2023-10-10T16:30:40.227Z,100959.47
2023-10-10T16:33:10.106Z,100985.00
2023-10-10T16:35:41.558Z,100984.25
2023-10-10T16:38:08.836Z,100977.31
2023-10-10T16:40:35.869Z,101003.84
2023-10-10T16:43:03.455Z,100998.53
2023-10-10T16:45:33.934Z,100993.28
2023-10-10T16:48:02.890Z,101000.34
2023-10-10T16:50:29.999Z,100983.66
2023-10-10T16:53:09.975Z,101002.06
2023-10-10T16:55:42.623Z,100996.75
2023-10-10T16:58:16.192Z,101001.91
2023-10-10T17:00:49.141Z,101002.72
2023-10-10T17:03:18.275Z,100997.41
2023-10-10T17:05:52.723Z,100999.09
2023-10-10T17:08:20.785Z,101006.13
2023-10-10T17:10:50.684Z,101001.69
2023-10-10T17:13:18.232Z,101010.47
2023-10-10T17:15:48.452Z,101014.84
2023-10-10T17:18:16.484Z,101015.66
2023-10-10T17:20:44.045Z,101013.88
2023-10-10T17:23:14.457Z,101015.66
2023-10-10T17:25:42.722Z,101018.31
2023-10-10T17:28:12.019Z,101017.41
2023-10-10T17:30:41.688Z,101013.84
2023-10-10T17:33:11.072Z,101001.50
2023-10-10T17:35:42.941Z,101017.38
2023-10-10T17:38:12.656Z,101028.88
2023-10-10T17:40:42.830Z,101029.72
2023-10-10T17:43:11.843Z,100998.09
2023-10-10T17:45:43.945Z,101019.22
2023-10-10T17:48:16.405Z,101035.19
2023-10-10T17:50:46.931Z,101036.09
2023-10-10T17:53:16.005Z,101039.72
2023-10-10T17:55:43.829Z,101028.25
2023-10-10T17:58:11.650Z,101018.53
2023-10-10T18:00:38.621Z,101044.03
2023-10-10T18:03:06.739Z,101056.47
2023-10-10T18:05:44.515Z,101045.97
2023-10-10T18:08:13.240Z,101063.63
2023-10-10T18:10:40.173Z,101045.06
2023-10-10T18:13:14.333Z,101057.44
2023-10-10T18:15:42.351Z,101067.16
2023-10-10T18:18:09.860Z,101061.84
2023-10-10T18:20:43.884Z,101053.00
2023-10-10T18:23:11.410Z,101067.13
2023-10-10T18:25:41.732Z,101068.88
2023-10-10T18:28:09.788Z,101060.03
2023-10-10T18:30:38.493Z,101065.34
2023-10-10T18:33:09.612Z,101067.13
2023-10-10T18:35:36.874Z,101076.88
2023-10-10T18:38:05.962Z,101066.28
2023-10-10T18:40:32.961Z,101045.16
2023-10-10T18:43:00.227Z,101077.75
2023-10-10T18:45:30.363Z,101084.84
2023-10-10T18:47:57.911Z,101080.41
2023-10-10T18:50:25.005Z,101084.87
2023-10-10T18:52:54.495Z,101058.53
2023-10-10T18:55:26.574Z,101084.94
2023-10-10T18:58:01.352Z,101089.41
2023-10-10T19:00:34.076Z,101055.97
2023-10-10T19:03:01.173Z,101089.44
2023-10-10T19:05:29.279Z,101097.38
2023-10-10T19:07:58.542Z,101076.31
2023-10-10T19:10:29.387Z,101081.59
2023-10-10T19:12:57.413Z,101102.78
2023-10-10T19:15:27.379Z,101102.78
2023-10-10T19:17:59.815Z,101091.34
2023-10-10T19:20:34.000Z,101102.81
2023-10-10T19:23:05.698Z,101101.00
2023-10-10T19:25:33.561Z,101097.56
2023-10-10T19:28:00.856Z,101094.94
2023-10-10T19:30:34.565Z,101080.87
2023-10-10T19:33:02.412Z,101106.44
2023-10-10T19:35:29.845Z,101086.19
2023-10-10T19:37:57.267Z,101083.63
2023-10-10T19:40:29.374Z,101108.34
2023-10-10T19:42:58.669Z,101098.66
2023-10-10T19:45:30.418Z,101098.69
2023-10-10T19:48:04.054Z,101082.88
2023-10-10T19:50:37.811Z,101097.87
2023-10-10T19:53:05.362Z,101104.09
2023-10-10T19:55:32.645Z,101112.00
2023-10-10T19:57:59.816Z,101115.50
2023-10-10T20:00:27.702Z,101115.53
2023-10-10T20:02:57.759Z,101101.41
2023-10-10T20:05:25.299Z,101100.50
2023-10-10T20:07:53.177Z,101106.69
2023-10-10T20:10:21.740Z,101112.88
2023-10-10T20:12:53.881Z,101101.37
2023-10-10T20:15:27.972Z,101101.44
2023-10-10T20:17:59.652Z,101107.69
2023-10-10T20:20:28.142Z,101108.59
2023-10-10T20:22:58.235Z,101107.75
2023-10-10T20:25:25.266Z,101081.34
2023-10-10T20:27:52.451Z,101115.81
2023-10-10T20:30:21.684Z,101100.91
2023-10-10T20:32:52.985Z,101112.34
2023-10-10T20:35:27.736Z,101122.09
2023-10-10T20:37:57.333Z,101111.47
2023-10-10T20:40:30.658Z,101122.94
2023-10-10T20:43:01.743Z,101125.63
2023-10-10T20:45:32.544Z,101108.00
2023-10-10T20:47:59.904Z,101130.94
2023-10-10T20:50:32.588Z,101123.88
2023-10-10T20:53:01.534Z,101124.75
2023-10-10T20:55:30.013Z,101128.31
2023-10-10T20:57:58.685Z,101131.81
2023-10-10T21:00:30.118Z,101121.22
2023-10-10T21:03:07.199Z,101119.47
2023-10-10T21:05:36.096Z,101118.56
2023-10-10T21:08:04.932Z,101114.13
2023-10-10T21:10:32.103Z,101119.47
2023-10-10T21:12:59.517Z,101117.69
2023-10-10T21:15:27.756Z,101116.84
2023-10-10T21:18:00.099Z,101120.38
2023-10-10T21:20:39.752Z,101108.03
2023-10-10T21:23:12.655Z,101109.81
2023-10-10T21:25:42.458Z,101114.22
2023-10-10T21:28:09.886Z,101108.09
2023-10-10T21:30:40.323Z,101122.19
2023-10-10T21:33:08.111Z,101099.22
2023-10-10T21:35:35.654Z,101108.91
2023-10-10T21:38:03.609Z,101108.88
2023-10-10T21:40:33.994Z,101104.50
2023-10-10T21:43:01.233Z,101097.44
2023-10-10T21:45:33.422Z,101102.75
2023-10-10T21:48:04.808Z,101096.59
2023-10-10T21:50:32.607Z,101096.53
2023-10-10T21:53:01.919Z,101098.31
2023-10-10T21:55:29.305Z,101106.25
2023-10-10T21:57:57.335Z,101113.31
2023-10-10T22:00:45.753Z,101135.41
2023-10-10T22:03:15.241Z,101129.19
2023-10-10T22:05:46.589Z,101130.06
2023-10-10T22:08:14.008Z,101139.78
2023-10-10T22:10:43.243Z,101129.16
2023-10-10T22:13:12.495Z,101118.59
2023-10-10T22:15:39.988Z,101129.16
2023-10-10T22:18:07.429Z,101133.56
2023-10-10T22:20:35.468Z,101136.19
2023-10-10T22:23:05.588Z,101137.09
2023-10-10T22:25:35.429Z,101132.66
2023-10-10T22:28:05.047Z,101135.31
2023-10-10T22:30:38.768Z,101121.19
2023-10-10T22:33:12.214Z,101140.62
2023-10-10T22:35:40.406Z,101133.56
2023-10-10T22:38:07.875Z,101130.94
2023-10-10T22:40:35.212Z,101136.25
2023-10-10T22:43:04.241Z,101134.47
2023-10-10T22:45:36.416Z,101115.06
2023-10-10T22:48:05.409Z,101134.50
2023-10-10T22:50:33.393Z,101137.12
2023-10-10T22:53:02.897Z,101132.72
2023-10-10T22:55:34.870Z,101138.91
2023-10-10T22:58:07.950Z,101135.37
2023-10-10T23:00:39.838Z,101118.63
2023-10-10T23:03:12.323Z,101103.66
2023-10-10T23:05:41.023Z,101121.28
2023-10-10T23:08:08.853Z,101125.69
2023-10-10T23:10:37.907Z,101131.84
2023-10-10T23:13:05.102Z,101128.28
2023-10-10T23:15:32.224Z,101137.12
2023-10-10T23:18:01.509Z,101134.47
2023-10-10T23:20:30.562Z,101132.69
2023-10-10T23:23:00.085Z,101115.03
2023-10-10T23:25:27.595Z,101139.72
2023-10-10T23:27:57.308Z,101141.47
2023-10-10T23:30:28.868Z,101143.25
2023-10-10T23:32:58.230Z,101146.78
2023-10-10T23:35:25.862Z,101142.41
2023-10-10T23:38:06.559Z,101137.09
2023-10-10T23:40:42.303Z,101137.12
2023-10-10T23:43:17.515Z,101142.50
2023-10-10T23:45:44.852Z,101137.19
2023-10-10T23:48:17.078Z,101139.00
2023-10-10T23:50:45.184Z,101136.38
2023-10-10T23:53:15.521Z,101130.22
2023-10-10T23:55:46.746Z,101120.53
2023-10-10T23:58:14.103Z,101134.66
